Terminal Aerodrome Forecast
Issued by NWS

Home | Current Version | Previous Version | Text Only | Print | Product List | Glossary Off
Versions: 1 2 3 4 5 6 7 8 9 10 11 12 13 14

000
FTUS43 KFGF 010500 AAA
TAFBJI
TAF AMD
KBJI 010504Z 0105/0124 21007KT P6SM BKN035
      TEMPO 0105/0107 1SM -SN OVC015
     FM010900 25008KT P6SM BKN025=

USA.gov is the U.S. government's official web portal to all federal, state and local government web resources and services.